Terminal Aerodrome Forecast
Issued by NWS Central Illinois

Home | Current Version | Previous Version | Text Only | Print | Product List | Glossary On
Versions: 1 2 3 4 5 6 7 8 9 10 11 12 13 14 15 16 17 18 19 20 21 22
216
FTUS43 KILX 221737
TAFSPI
TAF
KSPI 221737Z 2218/2318 20012KT P6SM SCT250
     FM230000 22007KT P6SM VCSH BKN080
     FM230500 17005KT P6SM VCSH BKN060
     FM231400 19006KT P6SM VCSH BKN050=

USA.gov is the U.S. government's official web portal to all federal, state and local government web resources and services.